Latest Weather Observations for Dum In Mirrie

IDD60801

Issued at 6:01 pm CST Saturday 30 May 2015 (issued every 30 minutes, with the page automatically refreshed every 10 minutes)

About weather observations | Map of weather stations | Latest weather observations for NT | Other Formats
Station Details ID: 014277 Name: DUM IN MIRRIE AIRSTRIP Lat: -12.63 Lon: 130.37 Height: 3.5 m
Data from the previous 72 hours. | See also: Recent months at Dum In Mirrie
Date/Time
CST
Temp
°C
App
Temp
°C
Dew
Point
Rel
Hum
%
Delta-T
°C
Wind Press
QNH
hPa
Press
MSL
hPa
Rain
since 9 am
mm
Dir
 
Spd
km/h
Gust
km/h
Spd
kts
Gust
kts
30/06:00pm 28.7 33.3 22.4 68 4.3 ENE 2 6 1 3 1010.1 1010.1 0.0
30/05:30pm 29.1 33.2 22.3 66 4.6 NE 4 7 2 4 1009.9 1009.9 0.0
30/05:00pm 29.6 33.5 22.6 66 4.8 NE 6 11 3 6 1009.7 1009.7 0.0
30/04:30pm 30.2 33.8 22.1 62 5.5 ENE 6 9 3 5 1009.5 1009.5 0.0
30/04:00pm 30.2 33.8 22.1 62 5.5 ENE 6 7 3 4 1009.3 1009.3 0.0
30/03:30pm 30.3 33.8 21.9 60 5.7 E 6 9 3 5 1009.5 1009.5 0.0
30/03:00pm 30.9 33.8 21.7 58 6.2 E 9 15 5 8 1010.2 1010.2 0.0
30/02:30pm 31.5 34.7 21.7 56 6.6 E 7 13 4 7 1010.6 1010.6 0.0
30/02:00pm 31.4 33.9 21.0 54 7.0 ENE 9 19 5 10 1011.0 1011.0 0.0
30/01:30pm 30.9 32.9 20.8 55 6.7 E 11 15 6 8 1011.2 1011.2 0.0
30/01:00pm 31.1 32.8 21.0 55 6.8 E 13 20 7 11 1011.5 1011.5 0.0
30/12:30pm 30.2 32.5 21.3 59 6.0 E 11 19 6 10 1012.0 1012.0 0.0
30/12:00pm 30.2 32.1 21.3 59 6.0 E 13 20 7 11 1012.3 1012.3 0.0
30/11:30am 30.3 31.0 20.5 55 6.5 E 17 24 9 13 1012.6 1012.6 0.0
30/11:00am 29.9 32.6 21.3 60 5.8 E 9 17 5 9 1012.8 1012.8 0.0
30/10:30am 28.6 30.8 20.3 60 5.5 ESE 9 19 5 10 1013.1 1013.1 0.0
30/10:00am 28.2 30.9 20.7 63 5.0 ESE 7 11 4 6 1013.6 1013.6 0.0
30/09:30am 27.1 30.8 21.4 71 3.8 SSE 4 9 2 5 1013.6 1013.6 0.0
30/09:00am 26.1 30.2 21.5 76 3.1 S 2 6 1 3 1013.7 1013.7 0.0
30/08:30am 25.5 29.2 21.4 78 2.7 S 4 7 2 4 1013.2 1013.2 0.0
30/08:00am 25.3 28.6 20.8 76 3.0 S 4 6 2 3 1012.7 1012.7 0.0
30/07:30am 25.3 28.5 20.5 75 3.1 S 4 6 2 3 1012.4 1012.4 0.0
30/07:00am 25.3 29.1 21.0 77 2.8 S 2 7 1 4 1012.3 1012.3 0.0
30/06:30am 25.6 29.1 21.1 76 3.0 S 4 7 2 4 1012.2 1012.2 0.0
30/06:00am 25.4 28.8 20.9 76 3.0 SSE 4 7 2 4 1012.1 1012.1 0.0
30/05:30am 25.1 28.8 21.4 80 2.4 SSE 4 9 2 5 1011.9 1011.9 0.0
30/05:00am 25.2 29.5 21.9 82 2.2 SSE 2 4 1 2 1011.9 1011.9 0.0
30/04:30am 25.5 29.9 22.8 85 1.8 SSE 4 6 2 3 1011.7 1011.7 0.0
30/04:00am 25.7 31.3 23.6 88 1.4 CALM 0 2 0 1 1011.8 1011.8 0.0
30/03:30am 25.7 30.6 23.6 88 1.4 S 4 7 2 4 1011.7 1011.7 0.0
30/03:00am 25.7 30.9 23.6 88 1.4 SE 2 6 1 3 1012.2 1012.2 0.0
30/02:30am 25.7 30.6 23.7 89 1.4 S 4 7 2 4 1012.5 1012.5 0.0
30/02:00am 25.6 30.4 23.5 88 1.4 S 4 9 2 5 1012.8 1012.8 0.0
30/01:30am 25.8 30.7 23.7 88 1.4 S 4 9 2 5 1012.8 1012.8 0.0
30/01:00am 25.9 30.8 23.6 87 1.6 SE 4 6 2 3 1013.1 1013.1 0.0
30/12:30am 26.6 31.7 24.1 86 1.7 S 4 7 2 4 1012.9 1012.9 0.0
30/12:00am 26.9 31.5 24.2 85 1.9 SSW 7 11 4 6 1012.9 1012.9 0.0
 
Date/Time
CST
Temp
°C
App
Temp
°C
Dew
Point
Rel
Hum
%
Delta-T
°C
Wind Press
QNH
hPa
Press
MSL
hPa
Rain
since 9 am
mm
Dir
 
Spd
km/h
Gust
km/h
Spd
kts
Gust
kts
29/11:30pm 26.9 31.2 24.2 85 1.9 SSW 9 15 5 8 1013.0 1013.0 0.0
29/11:00pm 26.9 31.5 24.7 88 1.5 SSW 9 19 5 10 1013.1 1013.1 0.0
29/10:30pm 26.7 32.0 24.9 90 1.3 SSW 6 9 3 5 1013.2 1013.2 0.0
29/10:00pm 26.2 31.9 23.7 86 1.7 CALM 0 0 0 0 1013.2 1013.2 0.0
29/09:30pm 26.5 31.7 23.6 84 2.0 S 2 4 1 2 1013.2 1013.2 0.0
29/09:00pm 26.6 32.3 23.7 84 2.0 CALM 0 4 0 2 1013.0 1013.0 0.0
29/08:30pm 26.8 32.2 23.3 81 2.4 CALM 0 0 0 0 1012.6 1012.6 0.0
29/08:00pm 27.3 32.1 23.5 80 2.6 NE 4 7 2 4 1012.4 1012.4 0.0
29/07:30pm 27.5 31.7 23.5 79 2.7 NE 7 13 4 7 1012.2 1012.2 0.0
29/07:00pm 27.6 31.7 23.2 77 3.0 NE 7 13 4 7 1012.0 1012.0 0.0
29/06:30pm 28.0 31.7 23.2 75 3.3 NE 9 17 5 9 1011.8 1011.8 0.0
29/06:00pm 28.4 32.0 23.1 73 3.6 NE 9 15 5 8 1011.4 1011.4 0.0
29/05:30pm 28.7 32.3 23.1 71 3.8 NNE 9 15 5 8 1011.0 1011.0 0.0
29/05:00pm 29.2 33.1 22.9 69 4.3 N 7 15 4 8 1010.7 1010.7 0.0
29/04:30pm 29.2 32.9 23.2 70 4.1 N 9 13 5 7 1010.6 1010.6 0.0
29/04:00pm 29.6 33.1 22.8 67 4.6 N 9 17 5 9 1010.7 1010.7 0.0
29/03:30pm 29.4 32.5 22.9 68 4.4 N 11 17 6 9 1010.9 1010.9 0.0
29/03:00pm 30.7 34.0 22.6 62 5.5 N 9 17 5 9 1011.0 1011.0 0.0
29/02:30pm 31.0 34.3 22.6 61 5.7 NNW 9 20 5 11 1011.1 1011.1 0.0
29/02:00pm 32.1 35.2 22.8 58 6.4 NNE 11 19 6 10 1011.2 1011.2 0.0
29/01:30pm 33.2 34.4 20.7 47 8.4 NE 15 24 8 13 1011.4 1011.4 0.0
29/01:00pm 32.9 34.7 21.1 50 7.9 ENE 13 24 7 13 1012.0 1012.0 0.0
29/12:30pm 32.3 34.5 21.2 52 7.5 ENE 11 19 6 10 1012.5 1012.5 0.0
29/12:00pm 31.1 32.8 21.0 55 6.8 E 13 20 7 11 1013.2 1013.2 0.0
29/11:30am 30.4 32.3 20.6 55 6.5 E 11 17 6 9 1013.6 1013.6 0.0
29/11:00am 29.8 32.2 20.9 59 5.9 E 9 13 5 7 1014.0 1014.0 0.0
29/10:30am 29.9 32.7 21.6 61 5.6 E 9 17 5 9 1014.3 1014.3 0.0
29/10:00am 28.3 30.7 20.8 63 5.0 E 9 15 5 8 1014.6 1014.6 0.0
29/09:30am 27.5 30.6 21.5 70 4.0 E 7 13 4 7 1014.7 1014.7 0.0
29/09:00am 26.1 29.2 21.1 74 3.3 ESE 6 7 3 4 1014.4 1014.4 -
29/08:30am 24.2 28.2 22.1 88 1.4 ESE 4 7 2 4 1013.9 1013.9 -
29/08:00am 24.1 29.1 23.9 99 0.1 SE 4 6 2 3 1013.5 1013.5 -
29/07:30am 22.9 27.2 22.6 98 0.2 SSE 4 6 2 3 1013.3 1013.3 -
29/07:00am 22.6 26.7 22.3 98 0.2 SE 4 4 2 2 1013.1 1013.1 -
29/06:30am 22.6 27.4 22.1 97 0.3 CALM 0 0 0 0 1013.0 1013.0 -
29/06:00am 23.1 27.9 22.8 98 0.2 SE 2 4 1 2 1013.0 1013.0 -
29/05:30am 23.9 28.8 23.6 98 0.2 S 4 6 2 3 1012.5 1012.5 -
29/05:00am 23.9 28.8 23.6 98 0.2 SSE 4 6 2 3 1012.3 1012.3 -
29/04:30am 23.6 28.3 23.3 98 0.2 S 4 6 2 3 1012.2 1012.2 0.0
29/04:00am 22.7 26.6 21.9 95 0.5 SSE 4 4 2 2 1012.2 1012.2 0.0
29/03:30am 23.6 28.3 23.3 98 0.2 S 4 4 2 2 1012.1 1012.1 0.0
29/03:00am 23.4 27.9 22.9 97 0.3 SSE 4 4 2 2 1012.1 1012.1 0.0
29/02:30am 23.1 27.8 22.6 97 0.3 SE 2 4 1 2 1012.4 1012.4 0.0
29/02:00am 22.5 27.0 21.5 94 0.7 CALM 0 2 0 1 1012.8 1012.8 0.0
29/01:30am 23.0 27.5 22.3 96 0.5 SSE 2 4 1 2 1012.8 1012.8 0.0
29/01:00am 22.5 26.9 21.3 93 0.8 CALM 0 4 0 2 1012.8 1012.8 0.0
29/12:30am 22.7 27.2 21.5 93 0.8 CALM 0 0 0 0 1012.9 1012.9 0.0
29/12:00am 23.3 27.4 22.3 94 0.7 S 4 6 2 3 1012.9 1012.9 0.0
 
Date/Time
CST
Temp
°C
App
Temp
°C
Dew
Point
Rel
Hum
%
Delta-T
°C
Wind Press
QNH
hPa
Press
MSL
hPa
Rain
since 9 am
mm
Dir
 
Spd
km/h
Gust
km/h
Spd
kts
Gust
kts
28/11:30pm 23.1 27.2 22.3 95 0.5 S 4 6 2 3 1013.0 1013.0 0.0
28/11:00pm 22.4 26.6 21.0 92 0.9 CALM 0 0 0 0 1013.1 1013.1 0.0
28/10:30pm 22.7 27.1 21.3 92 0.9 CALM 0 0 0 0 1013.2 1013.2 0.0
28/10:00pm 23.0 27.5 21.5 91 1.0 CALM 0 0 0 0 1013.2 1013.2 0.0
28/09:30pm 23.0 27.4 21.3 90 1.1 CALM 0 0 0 0 1013.0 1013.0 0.0
28/09:00pm 23.2 27.3 20.7 86 1.6 CALM 0 0 0 0 1012.8 1012.8 0.0
28/08:30pm 23.8 28.1 21.1 85 1.8 CALM 0 0 0 0 1012.7 1012.7 0.0
28/08:00pm 24.3 28.1 21.0 82 2.2 NNE 2 4 1 2 1012.4 1012.4 0.0
28/07:30pm 24.8 28.6 20.9 79 2.6 NNE 2 6 1 3 1012.1 1012.1 0.0
28/07:00pm 25.8 29.2 21.0 75 3.2 NNE 4 7 2 4 1011.6 1011.6 0.0
28/06:30pm 26.8 30.0 21.3 72 3.7 NNE 6 7 3 4 1011.3 1011.3 0.0
28/06:00pm 27.6 30.9 21.4 69 4.1 NNE 6 9 3 5 1011.1 1011.1 0.0
28/05:30pm 28.4 31.5 21.4 66 4.7 N 7 13 4 7 1010.7 1010.7 0.0
28/05:00pm 29.3 32.4 21.5 63 5.2 N 7 13 4 7 1010.6 1010.6 0.0
28/04:30pm 29.4 31.8 21.6 63 5.2 N 11 17 6 9 1010.6 1010.6 0.0
28/04:00pm 30.0 32.7 22.2 63 5.3 N 11 19 6 10 1010.3 1010.3 0.0
28/03:30pm 30.0 33.2 22.4 63 5.2 NNW 9 17 5 9 1010.4 1010.4 0.0
28/03:00pm 30.5 33.7 22.4 62 5.5 NW 9 15 5 8 1010.5 1010.5 0.0
28/02:30pm 30.3 33.2 22.5 63 5.3 WNW 11 17 6 9 1010.7 1010.7 0.0
28/02:00pm 30.3 33.3 22.7 64 5.2 N 11 20 6 11 1010.9 1010.9 0.0
28/01:30pm 32.3 34.3 21.5 53 7.3 NE 13 19 7 10 1011.6 1011.6 0.0
28/01:00pm 31.3 33.5 21.2 55 6.8 NE 11 19 6 10 1012.0 1012.0 0.0
28/12:30pm 31.2 33.9 21.4 56 6.6 ENE 9 17 5 9 1012.7 1012.7 0.0
28/12:00pm 30.4 32.8 20.9 57 6.3 E 9 13 5 7 1013.3 1013.3 0.0
28/11:30am 30.1 32.9 21.5 60 5.8 ESE 9 13 5 7 1013.7 1013.7 0.0
28/11:00am 29.5 32.2 22.2 65 4.9 ENE 11 17 6 9 1014.0 1014.0 0.0
28/10:30am 29.3 32.2 22.5 67 4.6 ENE 11 15 6 8 1014.0 1014.0 0.0
28/10:00am 28.4 31.9 22.2 69 4.2 E 7 13 4 7 1014.0 1014.0 0.0
28/09:30am 27.7 32.3 23.1 76 3.1 ESE 4 7 2 4 1013.8 1013.8 0.0
28/09:00am 26.4 30.5 22.9 81 2.4 ESE 6 7 3 4 1013.7 1013.7 0.0
28/08:30am 25.5 30.2 23.4 88 1.4 ESE 4 6 2 3 1013.5 1013.5 0.0
28/08:00am 24.3 29.7 23.8 97 0.3 ESE 2 6 1 3 1013.1 1013.1 0.0
28/07:30am 23.8 28.6 23.5 98 0.2 ESE 4 4 2 2 1012.9 1012.9 0.0
28/07:00am 23.6 28.3 23.3 98 0.2 ESE 4 6 2 3 1012.5 1012.5 0.0
28/06:30am 23.8 28.6 23.5 98 0.2 SE 4 7 2 4 1012.4 1012.4 0.0
28/06:00am 23.9 28.8 23.6 98 0.2 SE 4 7 2 4 1012.1 1012.1 0.0
28/05:30am 23.8 28.5 23.3 97 0.3 SE 4 6 2 3 1011.8 1011.8 0.0
28/05:00am 24.2 29.1 23.7 97 0.3 SE 4 7 2 4 1011.6 1011.6 0.0
28/04:30am 24.0 28.2 23.1 95 0.6 SSE 6 11 3 6 1011.4 1011.4 0.0
28/04:00am 24.0 28.1 23.0 94 0.7 SSE 6 9 3 5 1011.3 1011.3 0.0
28/03:30am 23.9 28.4 22.9 94 0.7 SSE 4 6 2 3 1011.5 1011.5 0.0
28/03:00am 24.0 28.4 22.8 93 0.8 SSE 4 7 2 4 1011.8 1011.8 0.0
28/02:30am 24.0 27.9 22.6 92 0.9 SSE 6 9 3 5 1012.0 1012.0 0.0
28/02:00am 23.6 27.9 22.6 94 0.7 SE 4 7 2 4 1012.2 1012.2 0.0
28/01:30am 22.5 26.5 21.3 93 0.8 SSE 2 7 1 4 1012.3 1012.3 0.0
28/01:00am 21.9 25.9 20.5 92 0.9 CALM 0 0 0 0 1012.5 1012.5 0.0
28/12:30am 22.1 26.3 20.9 93 0.8 CALM 0 0 0 0 1012.7 1012.7 0.0
28/12:00am 21.9 25.8 20.4 91 1.0 CALM 0 2 0 1 1012.8 1012.8 0.0
 
Date/Time
CST
Temp
°C
App
Temp
°C
Dew
Point
Rel
Hum
%
Delta-T
°C
Wind Press
QNH
hPa
Press
MSL
hPa
Rain
since 9 am
mm
Dir
 
Spd
km/h
Gust
km/h
Spd
kts
Gust
kts
27/11:30pm 22.4 26.2 20.9 91 1.0 SSE 2 2 1 1 1012.9 1012.9 0.0
27/11:00pm 22.5 26.1 20.6 89 1.2 SSE 2 4 1 2 1013.0 1013.0 0.0
27/10:30pm 22.9 27.1 21.0 89 1.2 CALM 0 0 0 0 1012.9 1012.9 0.0
27/10:00pm 22.8 26.6 20.1 85 1.7 CALM 0 0 0 0 1012.9 1012.9 0.0
27/09:30pm 23.3 27.3 20.6 85 1.8 CALM 0 0 0 0 1012.7 1012.7 0.0
27/09:00pm 23.7 27.4 20.0 80 2.4 CALM 0 0 0 0 1012.4 1012.4 0.0
27/08:30pm 24.7 28.0 20.0 75 3.0 ENE 2 2 1 1 1012.2 1012.2 0.0
27/08:00pm 26.2 29.4 20.5 71 3.7 NE 4 7 2 4 1011.9 1011.9 0.0
27/07:30pm 26.8 30.3 20.4 68 4.2 E 2 6 1 3 1011.6 1011.6 0.0
27/07:00pm 27.6 30.3 20.7 66 4.6 NNE 7 15 4 8 1011.1 1011.1 0.0
27/06:30pm 28.0 30.0 20.8 65 4.8 NE 11 17 6 9 1010.6 1010.6 0.0

Other Formats:

Comma delimited format used in spreadsheet applications
http://www.bom.gov.au/fwo/IDD60801/IDD60801.94116.axf

JavaScript Object Notation format (JSON) in row-major order
http://www.bom.gov.au/fwo/IDD60801/IDD60801.94116.json